createdAt,value
2023-04-29T00:00:11.194Z,15.50
2023-04-29T00:02:39.062Z,15.43
2023-04-29T00:05:07.880Z,14.91
2023-04-29T00:07:36.399Z,15.37
2023-04-29T00:10:06.561Z,15.53
2023-04-29T00:12:34.399Z,15.02
2023-04-29T00:15:03.093Z,14.58
2023-04-29T00:17:30.996Z,14.94
2023-04-29T00:19:58.695Z,14.95
2023-04-29T00:22:26.411Z,15.09
2023-04-29T00:24:54.255Z,15.29
2023-04-29T00:27:23.386Z,15.05
2023-04-29T00:29:51.226Z,15.02
2023-04-29T00:32:19.105Z,15.12
2023-04-29T00:34:46.746Z,14.92
2023-04-29T00:37:14.422Z,14.95
2023-04-29T00:39:42.076Z,14.81
2023-04-29T00:42:11.131Z,14.98
2023-04-29T00:44:40.365Z,14.93
2023-04-29T00:47:11.371Z,15.12
2023-04-29T00:49:39.729Z,15.27
2023-04-29T00:52:08.702Z,15.08
2023-04-29T00:54:36.774Z,15.05
2023-04-29T00:57:07.183Z,14.98
2023-04-29T00:59:35.050Z,14.76
2023-04-29T01:02:04.872Z,14.69
2023-04-29T01:04:32.698Z,14.93
2023-04-29T01:07:10.137Z,15.04
2023-04-29T01:09:51.630Z,14.93
2023-04-29T01:12:23.430Z,14.89
2023-04-29T01:15:01.662Z,15.09
2023-04-29T01:17:35.964Z,15.04
2023-04-29T01:20:05.620Z,15.12
2023-04-29T01:22:33.335Z,15.18
2023-04-29T01:25:02.356Z,14.99
2023-04-29T01:27:35.434Z,15.17
2023-04-29T01:30:11.561Z,14.97
2023-04-29T01:32:52.309Z,15.12
2023-04-29T01:35:31.227Z,15.20
2023-04-29T01:38:11.017Z,15.03
2023-04-29T01:40:48.674Z,14.83
2023-04-29T01:43:18.339Z,14.62
2023-04-29T01:45:46.287Z,14.23
2023-04-29T01:48:14.339Z,14.27
2023-04-29T01:50:42.044Z,14.30
2023-04-29T01:53:09.783Z,14.50
2023-04-29T01:55:37.537Z,14.48
2023-04-29T01:58:06.618Z,14.33
2023-04-29T02:00:34.347Z,14.57
2023-04-29T02:03:02.233Z,14.45
2023-04-29T02:05:32.365Z,14.71
2023-04-29T02:08:00.144Z,14.52
2023-04-29T02:10:27.921Z,14.47
2023-04-29T02:12:55.754Z,14.19
2023-04-29T02:15:27.658Z,14.63
2023-04-29T02:17:55.710Z,14.91
2023-04-29T02:20:23.459Z,14.51
2023-04-29T02:22:51.424Z,14.63
2023-04-29T02:25:19.126Z,14.45
2023-04-29T02:27:46.851Z,14.62
2023-04-29T02:30:14.612Z,14.63
2023-04-29T02:32:43.688Z,14.81
2023-04-29T02:35:12.594Z,14.44
2023-04-29T02:37:40.376Z,14.56
2023-04-29T02:40:09.364Z,14.63
2023-04-29T02:42:37.889Z,14.16
2023-04-29T02:45:06.542Z,14.48
2023-04-29T02:47:34.316Z,14.05
2023-04-29T02:50:04.801Z,14.15
2023-04-29T02:52:32.739Z,14.31
2023-04-29T02:55:00.432Z,14.39
2023-04-29T02:57:29.620Z,14.30
2023-04-29T02:59:57.467Z,14.47
2023-04-29T03:02:25.309Z,14.62
2023-04-29T03:04:53.351Z,14.69
2023-04-29T03:07:22.693Z,14.72
2023-04-29T03:09:50.711Z,14.57
2023-04-29T03:12:18.516Z,14.81
2023-04-29T03:14:46.231Z,14.42
2023-04-29T03:17:14.068Z,14.61
2023-04-29T03:19:41.990Z,14.20
2023-04-29T03:22:10.622Z,14.32
2023-04-29T03:24:40.101Z,14.46
2023-04-29T03:27:07.816Z,14.23
2023-04-29T03:29:35.687Z,14.33
2023-04-29T03:32:03.461Z,14.36
2023-04-29T03:34:31.326Z,14.54
2023-04-29T03:36:59.769Z,14.26
2023-04-29T03:39:28.213Z,14.31
2023-04-29T03:41:57.314Z,14.26
2023-04-29T03:44:25.121Z,14.20
2023-04-29T03:46:52.896Z,14.14
2023-04-29T03:49:20.604Z,14.08
2023-04-29T03:51:48.311Z,14.24
2023-04-29T03:54:16.149Z,14.05
2023-04-29T03:56:44.103Z,14.12
2023-04-29T03:59:13.150Z,14.22
2023-04-29T04:01:40.861Z,14.22
2023-04-29T04:04:08.795Z,14.60
2023-04-29T04:06:36.617Z,14.64
2023-04-29T04:09:04.514Z,14.37
2023-04-29T04:11:32.224Z,14.43
2023-04-29T04:13:59.939Z,14.35
2023-04-29T04:16:29.002Z,14.09
2023-04-29T04:18:56.709Z,14.28
2023-04-29T04:21:25.228Z,14.14
2023-04-29T04:23:52.923Z,14.09
2023-04-29T04:26:21.577Z,13.82
2023-04-29T04:28:49.508Z,13.92
2023-04-29T04:31:17.315Z,14.24
2023-04-29T04:33:46.384Z,14.13
2023-04-29T04:36:14.515Z,14.26
2023-04-29T04:38:42.194Z,14.05
2023-04-29T04:41:09.944Z,13.97
2023-04-29T04:43:37.652Z,13.97
2023-04-29T04:46:11.837Z,13.94
2023-04-29T04:48:39.740Z,13.99
2023-04-29T04:51:12.467Z,14.36
2023-04-29T04:53:41.057Z,14.41
2023-04-29T04:56:09.504Z,14.14
2023-04-29T04:58:37.170Z,14.53
2023-04-29T05:01:05.063Z,14.10
2023-04-29T05:03:32.997Z,14.14
2023-04-29T05:06:01.757Z,14.13
2023-04-29T05:08:30.936Z,14.54
2023-04-29T05:10:58.719Z,14.41
2023-04-29T05:13:26.864Z,14.45
2023-04-29T05:15:54.637Z,14.20
2023-04-29T05:18:23.420Z,14.15
2023-04-29T05:20:51.096Z,14.20
2023-04-29T05:23:18.784Z,14.58
2023-04-29T05:25:47.870Z,14.50
2023-04-29T05:28:15.511Z,14.31
2023-04-29T05:30:43.717Z,14.37
2023-04-29T05:33:12.033Z,13.99
2023-04-29T05:35:39.823Z,14.23
2023-04-29T05:38:07.536Z,14.40
2023-04-29T05:40:35.380Z,14.37
2023-04-29T05:43:04.450Z,14.43
2023-04-29T05:45:32.108Z,14.49
2023-04-29T05:47:59.899Z,14.42
2023-04-29T05:50:27.590Z,14.70
2023-04-29T05:52:56.476Z,14.61
2023-04-29T05:55:24.531Z,14.59
2023-04-29T05:57:52.207Z,14.72
2023-04-29T06:00:21.765Z,14.73
2023-04-29T06:02:58.092Z,14.51
2023-04-29T06:05:27.629Z,14.64
2023-04-29T06:07:55.887Z,14.61
2023-04-29T06:10:23.718Z,14.81
2023-04-29T06:12:51.883Z,14.78
2023-04-29T06:15:21.076Z,14.96
2023-04-29T06:17:49.387Z,14.58
2023-04-29T06:20:18.249Z,14.39
2023-04-29T06:22:46.329Z,14.44
2023-04-29T06:25:14.123Z,14.33
2023-04-29T06:27:41.927Z,14.71
2023-04-29T06:30:11.582Z,14.58
2023-04-29T06:32:41.023Z,14.64
2023-04-29T06:35:09.733Z,14.60
2023-04-29T06:37:38.244Z,14.74
2023-04-29T06:40:07.460Z,15.03
2023-04-29T06:42:35.184Z,14.81
2023-04-29T06:45:02.865Z,14.61
2023-04-29T06:47:31.099Z,14.72
2023-04-29T06:50:00.225Z,14.81
2023-04-29T06:52:27.931Z,14.63
2023-04-29T06:54:55.643Z,14.63
2023-04-29T06:57:23.475Z,14.55
2023-04-29T06:59:51.479Z,14.73
2023-04-29T07:02:19.452Z,14.73
2023-04-29T07:04:49.036Z,15.00
2023-04-29T07:07:18.217Z,14.92
2023-04-29T07:09:46.041Z,14.89
2023-04-29T07:12:13.790Z,15.10
2023-04-29T07:14:41.962Z,14.64
2023-04-29T07:17:09.997Z,14.87
2023-04-29T07:19:39.220Z,14.53
2023-04-29T07:22:06.904Z,14.65
2023-04-29T07:24:35.969Z,14.36
2023-04-29T07:27:04.376Z,14.85
2023-04-29T07:29:32.562Z,14.89
2023-04-29T07:32:00.213Z,15.04
2023-04-29T07:34:28.003Z,15.52
2023-04-29T07:36:56.219Z,15.78
2023-04-29T07:39:23.984Z,15.46
2023-04-29T07:41:53.141Z,15.67
2023-04-29T07:44:22.132Z,15.52
2023-04-29T07:46:49.881Z,15.39
2023-04-29T07:49:17.569Z,15.55
2023-04-29T07:51:45.399Z,15.29
2023-04-29T07:54:13.162Z,15.22
2023-04-29T07:56:40.874Z,15.10
2023-04-29T07:59:09.917Z,15.17
2023-04-29T08:01:37.659Z,15.18
2023-04-29T08:04:05.552Z,15.41
2023-04-29T08:06:33.362Z,15.21
2023-04-29T08:09:02.150Z,15.04
2023-04-29T08:11:30.944Z,15.47
2023-04-29T08:14:00.086Z,15.32
2023-04-29T08:16:29.269Z,14.90
2023-04-29T08:18:57.074Z,14.96
2023-04-29T08:21:24.928Z,15.10
2023-04-29T08:23:53.487Z,15.19
2023-04-29T08:26:22.554Z,15.19
2023-04-29T08:28:51.318Z,15.61
2023-04-29T08:31:19.074Z,15.48
2023-04-29T08:33:48.609Z,15.51
2023-04-29T08:36:16.328Z,15.57
2023-04-29T08:38:44.302Z,15.65
2023-04-29T08:41:12.312Z,15.72
2023-04-29T08:43:41.092Z,15.80
2023-04-29T08:46:09.351Z,15.84
2023-04-29T08:48:41.411Z,15.64
2023-04-29T08:51:14.428Z,15.47
2023-04-29T08:53:42.287Z,15.70
2023-04-29T08:56:17.483Z,15.48
2023-04-29T08:58:46.393Z,15.63
2023-04-29T09:01:15.385Z,15.61
2023-04-29T09:03:48.411Z,15.59
2023-04-29T09:06:18.554Z,15.77
2023-04-29T09:08:46.427Z,15.98
2023-04-29T09:11:15.223Z,16.28
2023-04-29T09:13:42.893Z,16.09
2023-04-29T09:16:12.877Z,16.01
2023-04-29T09:18:45.364Z,16.10
2023-04-29T09:21:22.035Z,16.14
2023-04-29T09:23:52.396Z,15.91
2023-04-29T09:26:20.714Z,15.88
2023-04-29T09:28:49.785Z,15.92
2023-04-29T09:31:28.916Z,16.12
2023-04-29T09:33:58.987Z,16.19
2023-04-29T09:36:44.897Z,16.21
2023-04-29T09:39:15.049Z,16.23
2023-04-29T09:42:00.045Z,16.15
2023-04-29T09:44:32.112Z,16.19
2023-04-29T09:47:03.815Z,16.43
2023-04-29T09:49:35.677Z,16.59
2023-04-29T09:52:06.024Z,16.35
2023-04-29T09:54:36.280Z,16.84
2023-04-29T09:57:06.034Z,16.84
2023-04-29T09:59:36.108Z,17.15
2023-04-29T10:02:09.350Z,17.07
2023-04-29T10:04:41.715Z,17.17
2023-04-29T10:07:15.042Z,17.45
2023-04-29T10:09:42.671Z,17.23
2023-04-29T10:12:11.011Z,17.43
2023-04-29T10:14:43.344Z,17.88
2023-04-29T10:17:17.392Z,17.82
2023-04-29T10:19:53.665Z,17.36
2023-04-29T10:22:30.872Z,17.78
2023-04-29T10:25:00.226Z,17.50
2023-04-29T10:27:28.956Z,17.85
2023-04-29T10:29:59.924Z,18.19
2023-04-29T10:32:36.977Z,18.43
2023-04-29T10:35:13.663Z,18.48
2023-04-29T10:37:43.435Z,18.21
2023-04-29T10:40:16.282Z,18.43
2023-04-29T10:42:46.335Z,18.62
2023-04-29T10:45:26.947Z,18.10
2023-04-29T10:48:13.091Z,18.50
2023-04-29T10:51:03.496Z,19.24
2023-04-29T10:53:32.865Z,18.53
2023-04-29T10:56:06.321Z,18.63
2023-04-29T10:58:46.011Z,18.74
2023-04-29T11:01:15.316Z,18.76
2023-04-29T11:03:48.264Z,18.87
2023-04-29T11:06:16.684Z,18.81
2023-04-29T11:08:45.863Z,19.01
2023-04-29T11:11:15.386Z,18.94
2023-04-29T11:13:47.144Z,19.01
2023-04-29T11:16:15.019Z,18.87
2023-04-29T11:19:06.928Z,19.02
2023-04-29T11:21:35.897Z,19.10
2023-04-29T11:24:06.353Z,18.71
2023-04-29T11:26:35.906Z,19.04
2023-04-29T11:29:03.753Z,18.85
2023-04-29T11:31:32.202Z,19.07
2023-04-29T11:34:00.533Z,19.13
2023-04-29T11:36:28.465Z,19.97
2023-04-29T11:38:56.385Z,19.88
2023-04-29T11:41:25.552Z,19.63
2023-04-29T11:43:57.622Z,19.51
2023-04-29T11:46:26.200Z,19.89
2023-04-29T11:48:53.982Z,20.67
2023-04-29T11:51:22.519Z,20.28
2023-04-29T11:53:50.440Z,20.63
2023-04-29T11:56:18.171Z,20.03
2023-04-29T11:58:47.276Z,19.41
2023-04-29T12:01:15.181Z,19.69
2023-04-29T12:03:46.429Z,20.51
2023-04-29T12:06:15.136Z,20.70
2023-04-29T12:08:42.930Z,20.31
2023-04-29T12:11:10.597Z,20.72
2023-04-29T12:13:38.659Z,20.88
2023-04-29T12:16:08.780Z,20.98
2023-04-29T12:18:36.607Z,21.16
2023-04-29T12:21:04.444Z,21.13
2023-04-29T12:23:32.182Z,21.10
2023-04-29T12:26:02.681Z,20.98
2023-04-29T12:28:30.610Z,21.64
2023-04-29T12:31:00.209Z,21.50
2023-04-29T12:33:31.449Z,21.62
2023-04-29T12:36:00.175Z,21.50
2023-04-29T12:38:29.003Z,21.62
2023-04-29T12:40:57.569Z,21.58
2023-04-29T12:43:28.247Z,22.33
2023-04-29T12:45:57.551Z,22.94
2023-04-29T12:48:33.626Z,23.18
2023-04-29T12:51:02.174Z,22.44
2023-04-29T12:53:31.449Z,22.19
2023-04-29T12:55:59.623Z,22.52
2023-04-29T12:58:30.057Z,23.59
2023-04-29T13:00:58.244Z,23.55
2023-04-29T13:03:26.884Z,22.49
2023-04-29T13:05:56.140Z,22.48
2023-04-29T13:08:23.901Z,23.10
2023-04-29T13:10:51.840Z,23.34
2023-04-29T13:13:19.712Z,22.47
2023-04-29T13:15:47.534Z,22.34
2023-04-29T13:18:15.757Z,22.58
2023-04-29T13:20:43.494Z,23.13
2023-04-29T13:23:13.037Z,23.98
2023-04-29T13:25:41.087Z,23.93
2023-04-29T13:28:08.810Z,24.34
2023-04-29T13:30:36.878Z,24.99
2023-04-29T13:33:11.784Z,24.68
2023-04-29T13:35:41.641Z,23.70
2023-04-29T13:38:09.795Z,23.84
2023-04-29T13:40:45.496Z,22.92
2023-04-29T13:43:20.940Z,22.76
2023-04-29T13:45:53.207Z,22.89
2023-04-29T13:53:52.817Z,23.88
2023-04-29T14:01:54.706Z,23.23
2023-04-29T14:04:02.635Z,23.33
2023-04-29T14:06:30.502Z,23.61
2023-04-29T14:08:58.216Z,24.23
2023-04-29T14:11:27.351Z,23.30
2023-04-29T14:13:55.105Z,23.34
2023-04-29T14:16:23.006Z,22.36
2023-04-29T14:18:51.004Z,23.03
2023-04-29T14:21:18.746Z,23.61
2023-04-29T14:23:46.480Z,23.31
2023-04-29T14:26:27.094Z,23.95
2023-04-29T14:28:58.310Z,23.51
2023-04-29T14:31:28.036Z,23.10
2023-04-29T14:33:56.062Z,21.92
2023-04-29T14:36:23.855Z,22.07
2023-04-29T14:38:51.537Z,22.60
2023-04-29T14:41:21.276Z,23.77
2023-04-29T14:43:48.985Z,23.96
2023-04-29T14:46:18.416Z,24.88
2023-04-29T14:48:46.200Z,24.01
2023-04-29T14:51:13.852Z,23.98
2023-04-29T14:53:41.616Z,22.81
2023-04-29T14:56:09.693Z,23.22
2023-04-29T14:58:37.407Z,22.57
2023-04-29T15:01:05.199Z,22.65
2023-04-29T15:03:40.188Z,22.46
2023-04-29T15:06:11.466Z,22.75
2023-04-29T15:08:39.545Z,23.17
2023-04-29T15:11:07.265Z,23.49
2023-04-29T15:13:34.995Z,23.70
2023-04-29T15:16:03.981Z,23.62
2023-04-29T15:18:31.888Z,23.16
2023-04-29T15:21:01.037Z,22.52
2023-04-29T15:23:28.709Z,22.84
2023-04-29T15:25:57.499Z,22.88
2023-04-29T15:28:25.917Z,23.38
2023-04-29T15:30:53.598Z,23.59
2023-04-29T15:33:21.342Z,23.49
2023-04-29T15:35:49.111Z,23.54
2023-04-29T15:38:18.416Z,24.14
2023-04-29T15:40:46.454Z,24.89
2023-04-29T15:43:14.226Z,25.28
2023-04-29T15:45:42.516Z,24.99
2023-04-29T15:48:10.361Z,24.24
2023-04-29T15:50:38.107Z,23.65
2023-04-29T15:53:05.855Z,23.67
2023-04-29T15:55:36.131Z,23.51
2023-04-29T15:58:03.843Z,22.52
2023-04-29T16:00:31.686Z,22.35
2023-04-29T16:02:59.543Z,22.24
2023-04-29T16:05:27.324Z,22.35
2023-04-29T16:07:55.052Z,22.53
2023-04-29T16:10:23.507Z,22.81
2023-04-29T16:12:52.557Z,22.78
2023-04-29T16:15:20.615Z,22.72
2023-04-29T16:17:48.365Z,22.48
2023-04-29T16:20:17.266Z,22.42
2023-04-29T16:22:44.967Z,22.33
2023-04-29T16:25:12.823Z,22.51
2023-04-29T16:27:40.523Z,22.32
2023-04-29T16:30:10.750Z,22.54
2023-04-29T16:32:38.630Z,22.78
2023-04-29T16:35:07.050Z,22.77
2023-04-29T16:37:34.739Z,22.74
2023-04-29T16:40:02.511Z,22.90
2023-04-29T16:42:30.258Z,22.83
2023-04-29T16:44:58.005Z,22.79
2023-04-29T16:47:27.136Z,22.63
2023-04-29T16:49:55.503Z,22.74
2023-04-29T16:52:24.061Z,22.42
2023-04-29T16:54:51.781Z,21.83
2023-04-29T16:57:21.341Z,21.81
2023-04-29T16:59:49.021Z,21.92
2023-04-29T17:02:16.742Z,21.99
2023-04-29T17:04:46.281Z,21.96
2023-04-29T17:07:14.319Z,22.15
2023-04-29T17:09:42.090Z,22.34
2023-04-29T17:12:10.267Z,22.50
2023-04-29T17:14:40.301Z,22.54
2023-04-29T17:17:08.259Z,22.61
2023-04-29T17:19:36.009Z,22.64
2023-04-29T17:22:05.099Z,22.82
2023-04-29T17:24:33.612Z,22.66
2023-04-29T17:27:01.377Z,22.52
2023-04-29T17:29:29.125Z,22.10
2023-04-29T17:31:59.912Z,22.23
2023-04-29T17:34:29.880Z,22.34
2023-04-29T17:36:57.700Z,22.18
2023-04-29T17:39:26.718Z,22.07
2023-04-29T17:41:54.453Z,22.22
2023-04-29T17:44:23.591Z,22.32
2023-04-29T17:46:51.533Z,22.30
2023-04-29T17:49:19.274Z,22.26
2023-04-29T17:51:46.986Z,22.06
2023-04-29T17:54:14.718Z,21.96
2023-04-29T17:56:43.733Z,22.07
2023-04-29T17:59:11.810Z,22.41
2023-04-29T18:01:39.912Z,22.24
2023-04-29T18:04:07.752Z,22.00
2023-04-29T18:06:35.787Z,21.78
2023-04-29T18:09:04.139Z,21.76
2023-04-29T18:11:31.970Z,21.72
2023-04-29T18:14:01.111Z,21.53
2023-04-29T18:16:28.959Z,21.69
2023-04-29T18:18:57.221Z,21.73
2023-04-29T18:21:25.525Z,21.84
2023-04-29T18:23:53.319Z,21.63
2023-04-29T18:26:21.204Z,21.64
2023-04-29T18:28:49.087Z,21.45
2023-04-29T18:31:18.609Z,21.56
2023-04-29T18:33:46.465Z,21.27
2023-04-29T18:36:14.712Z,21.02
2023-04-29T18:38:43.129Z,20.91
2023-04-29T18:41:11.944Z,20.90
2023-04-29T18:43:39.686Z,20.92
2023-04-29T18:46:07.545Z,20.98
2023-04-29T18:48:38.308Z,20.66
2023-04-29T18:51:06.080Z,20.90
2023-04-29T18:53:34.290Z,20.68
2023-04-29T18:56:02.091Z,20.04
2023-04-29T18:58:29.804Z,19.91
2023-04-29T19:00:59.796Z,20.22
2023-04-29T19:03:27.863Z,20.15
2023-04-29T19:05:56.966Z,20.17
2023-04-29T19:08:24.748Z,20.16
2023-04-29T19:10:53.438Z,20.19
2023-04-29T19:13:21.257Z,20.02
2023-04-29T19:15:50.763Z,19.85
2023-04-29T19:18:20.148Z,19.86
2023-04-29T19:20:48.820Z,20.06
2023-04-29T19:23:18.545Z,19.20
2023-04-29T19:25:46.271Z,19.51
2023-04-29T19:28:14.053Z,19.53
2023-04-29T19:30:41.726Z,19.69
2023-04-29T19:33:09.517Z,19.51
2023-04-29T19:35:37.335Z,19.50
2023-04-29T19:38:05.060Z,19.31
2023-04-29T19:40:34.083Z,19.05
2023-04-29T19:43:01.769Z,19.07
2023-04-29T19:45:29.507Z,19.23
2023-04-29T19:47:59.567Z,19.02
2023-04-29T19:50:27.494Z,18.84
2023-04-29T19:52:55.232Z,19.24
2023-04-29T19:55:23.028Z,19.23
2023-04-29T19:57:52.532Z,19.07
2023-04-29T20:00:20.507Z,18.91
2023-04-29T20:02:50.776Z,18.98
2023-04-29T20:05:19.579Z,19.06
2023-04-29T20:07:47.243Z,18.94
2023-04-29T20:10:15.380Z,18.70
2023-04-29T20:12:43.146Z,18.65
2023-04-29T20:15:12.689Z,18.77
2023-04-29T20:17:40.466Z,18.62
2023-04-29T20:20:09.915Z,18.49
2023-04-29T20:22:37.696Z,18.52
2023-04-29T20:25:05.844Z,18.24
2023-04-29T20:27:33.633Z,18.41
2023-04-29T20:30:01.514Z,18.48
2023-04-29T20:32:30.744Z,18.48
2023-04-29T20:34:58.499Z,18.57
2023-04-29T20:37:26.202Z,18.39
2023-04-29T20:39:54.085Z,18.31
2023-04-29T20:42:22.207Z,18.08
2023-04-29T20:44:49.947Z,18.32
2023-04-29T20:47:17.624Z,18.20
2023-04-29T20:49:46.697Z,18.35
2023-04-29T20:52:14.357Z,18.44
2023-04-29T20:54:42.177Z,18.36
2023-04-29T20:57:09.868Z,18.41
2023-04-29T20:59:37.631Z,18.49
2023-04-29T21:02:05.508Z,18.13
2023-04-29T21:04:33.344Z,17.98
2023-04-29T21:07:05.590Z,17.93
2023-04-29T21:09:33.418Z,18.02
2023-04-29T21:12:01.383Z,17.92
2023-04-29T21:14:29.135Z,18.01
2023-04-29T21:16:56.803Z,18.02
2023-04-29T21:19:24.541Z,17.82
2023-04-29T21:21:52.510Z,17.89
2023-04-29T21:24:21.564Z,17.97
2023-04-29T21:26:50.347Z,17.96
2023-04-29T21:29:18.046Z,17.68
2023-04-29T21:31:45.862Z,18.00
2023-04-29T21:34:13.717Z,17.87
2023-04-29T21:36:41.460Z,17.92
2023-04-29T21:39:09.940Z,18.05
2023-04-29T21:41:40.404Z,18.24
2023-04-29T21:44:08.449Z,17.96
2023-04-29T21:46:37.040Z,18.06
2023-04-29T21:49:05.035Z,18.20
2023-04-29T21:51:32.877Z,17.59
2023-04-29T21:54:01.057Z,17.93
2023-04-29T21:56:28.806Z,18.04
2023-04-29T21:58:57.872Z,18.10
2023-04-29T22:01:40.263Z,18.06
2023-04-29T22:04:08.439Z,17.93
2023-04-29T22:06:36.264Z,18.12
2023-04-29T22:09:04.925Z,17.92
2023-04-29T22:11:33.573Z,17.77
2023-04-29T22:14:02.690Z,17.50
2023-04-29T22:16:30.563Z,17.69
2023-04-29T22:18:58.770Z,17.67
2023-04-29T22:21:27.873Z,17.59
2023-04-29T22:23:55.972Z,17.60
2023-04-29T22:26:25.497Z,17.65
2023-04-29T22:28:53.403Z,17.62
2023-04-29T22:31:22.578Z,17.60
2023-04-29T22:33:50.924Z,17.70
2023-04-29T22:36:18.885Z,17.84
2023-04-29T22:38:46.606Z,17.68
2023-04-29T22:41:14.850Z,17.72
2023-04-29T22:43:42.568Z,17.62
2023-04-29T22:46:10.453Z,17.72
2023-04-29T22:48:39.577Z,17.59
2023-04-29T22:51:07.425Z,17.35
2023-04-29T22:53:35.177Z,17.13
2023-04-29T22:56:03.162Z,16.95
2023-04-29T22:58:31.561Z,17.14
2023-04-29T23:00:59.422Z,17.33
2023-04-29T23:03:27.827Z,17.28
2023-04-29T23:06:00.312Z,17.45
2023-04-29T23:08:28.295Z,17.40
2023-04-29T23:10:56.025Z,17.48
2023-04-29T23:13:23.845Z,17.51
2023-04-29T23:15:52.284Z,17.40
2023-04-29T23:18:20.070Z,17.36
2023-04-29T23:20:48.202Z,17.32
2023-04-29T23:23:17.224Z,17.34
2023-04-29T23:25:45.642Z,17.42
2023-04-29T23:28:13.456Z,17.45
2023-04-29T23:30:41.186Z,17.46
2023-04-29T23:33:09.044Z,17.43
2023-04-29T23:35:36.960Z,17.40
2023-04-29T23:38:04.710Z,17.48
2023-04-29T23:40:34.170Z,17.49
2023-04-29T23:43:01.865Z,17.29
2023-04-29T23:45:29.911Z,17.21
2023-04-29T23:47:57.633Z,17.31
2023-04-29T23:50:25.427Z,17.36
2023-04-29T23:52:53.452Z,17.30
2023-04-29T23:55:21.338Z,17.33
2023-04-29T23:57:50.363Z,17.35
